Time;durP1;ratioP1;P1;durP2;ratioP2;P2;SDS_P1;SDS_P2;PMS_P1;PMS_P2;Temp;Humidity;BMP_temperature;BMP_pressure;BME280_temperature;BME280_humidity;BME280_pressure;Samples;Min_cycle;Max_cycle;Signal;HPM_P1;HPM_P2
2022/01/27 00:02:03;;;;;;;24.20;15.93;;;7.70;99.90;;;;;;5046780;28;20211;-80
2022/01/27 00:04:36;;;;;;;27.70;16.77;;;7.80;99.90;;;;;;5046987;28;20240;-80
2022/01/27 00:07:04;;;;;;;29.90;16.10;;;7.70;99.90;;;;;;5048251;28;20689;-81
2022/01/27 00:09:44;;;;;;;29.57;16.77;;;7.70;99.90;;;;;;5046221;28;20209;-78
2022/01/27 00:12:14;;;;;;;35.03;19.83;;;7.70;99.90;;;;;;5047088;28;20220;-81
2022/01/27 00:14:46;;;;;;;29.67;17.23;;;7.70;99.90;;;;;;5046360;28;20218;-80
2022/01/27 00:17:25;;;;;;;28.67;16.27;;;7.70;99.90;;;;;;5047808;28;20236;-80
2022/01/27 00:19:52;;;;;;;33.60;16.83;;;7.70;99.90;;;;;;5047521;28;20237;-81
2022/01/27 00:22:18;;;;;;;29.20;16.20;;;7.70;99.90;;;;;;5046656;28;20198;-78
2022/01/27 00:24:45;;;;;;;30.13;16.60;;;7.80;99.90;;;;;;5046975;28;20218;-80
2022/01/27 00:27:12;;;;;;;28.80;17.27;;;7.80;99.90;;;;;;5047377;28;20194;-81
2022/01/27 00:29:39;;;;;;;33.83;18.17;;;7.70;99.90;;;;;;5058275;28;20213;-81
2022/01/27 00:32:06;;;;;;;37.43;18.20;;;7.70;99.90;;;;;;5066937;28;20490;-82
2022/01/27 00:34:34;;;;;;;31.33;17.77;;;7.70;99.90;;;;;;5055875;28;20216;-80
2022/01/27 00:37:01;;;;;;;30.10;19.13;;;7.60;99.90;;;;;;5045880;28;20221;-80
2022/01/27 00:39:28;;;;;;;30.47;18.63;;;7.60;99.90;;;;;;5046121;28;20620;-80
2022/01/27 00:41:55;;;;;;;29.47;18.37;;;7.60;99.90;;;;;;5046091;28;20644;-81
2022/01/27 00:44:22;;;;;;;33.47;20.27;;;7.50;99.90;;;;;;5054049;28;20251;-80
2022/01/27 00:46:49;;;;;;;32.70;19.10;;;7.40;99.90;;;;;;5065873;28;20209;-79
2022/01/27 00:49:15;;;;;;;35.00;18.17;;;7.40;99.90;;;;;;5049869;28;20263;-80
2022/01/27 00:51:46;;;;;;;31.70;17.83;;;7.30;99.90;;;;;;5045084;28;20214;-80
2022/01/27 00:54:18;;;;;;;36.90;18.27;;;7.30;99.90;;;;;;5046232;28;20251;-79
2022/01/27 00:56:50;;;;;;;30.03;16.60;;;7.20;99.90;;;;;;5045961;28;20194;-78
2022/01/27 00:59:29;;;;;;;31.43;18.00;;;7.20;99.90;;;;;;5045187;28;20217;-80
2022/01/27 01:02:03;;;;;;;29.67;16.97;;;7.10;99.90;;;;;;5045880;28;20201;-79
2022/01/27 01:04:37;;;;;;;28.47;16.70;;;7.10;99.90;;;;;;5044210;28;20228;-82
2022/01/27 01:07:07;;;;;;;29.03;16.13;;;7.10;99.90;;;;;;5046211;28;20209;-80
2022/01/27 01:14:57;;;;;;;30.53;17.20;;;7.00;99.90;;;;;;5045587;28;20602;-81
2022/01/27 01:17:37;;;;;;;33.53;18.50;;;7.10;99.90;;;;;;5045248;28;20287;-81
2022/01/27 01:20:29;;;;;;;29.43;16.93;;;7.00;99.90;;;;;;5044397;28;20241;-79
2022/01/27 01:31:16;;;;;;;36.00;18.77;;;7.00;99.90;;;;;;5045641;28;20692;-80
2022/01/27 01:33:45;;;;;;;33.67;19.40;;;7.00;99.90;;;;;;5044521;28;20194;-78
2022/01/27 01:36:16;;;;;;;33.53;17.90;;;7.00;99.90;;;;;;5045842;28;20504;-79
2022/01/27 01:38:45;;;;;;;33.63;18.63;;;7.00;99.90;;;;;;5046065;28;20302;-81
2022/01/27 01:41:12;;;;;;;34.03;18.53;;;7.00;99.90;;;;;;5046135;28;20222;-78
2022/01/27 01:43:39;;;;;;;35.47;17.97;;;6.90;99.90;;;;;;5045298;28;20237;-80
2022/01/27 01:46:06;;;;;;;37.00;17.80;;;7.00;99.90;;;;;;5053363;28;20248;-81
2022/01/27 01:48:33;;;;;;;41.40;19.17;;;7.00;99.90;;;;;;5045918;28;20296;-80
2022/01/27 01:51:02;;;;;;;41.73;18.77;;;7.00;99.90;;;;;;5044943;28;20345;-80
2022/01/27 01:53:29;;;;;;;37.07;19.43;;;7.00;99.90;;;;;;5045141;28;20198;-78
2022/01/27 01:55:58;;;;;;;41.67;18.53;;;7.00;99.90;;;;;;5055213;28;20212;-79
2022/01/27 01:58:25;;;;;;;42.00;18.40;;;7.10;99.90;;;;;;5065198;28;20850;-79
2022/01/27 02:00:52;;;;;;;39.33;18.17;;;7.10;99.90;;;;;;5065319;28;20629;-80
2022/01/27 02:03:18;;;;;;;40.70;18.50;;;7.10;99.90;;;;;;5064700;28;20201;-80
2022/01/27 02:05:51;;;;;;;38.47;17.70;;;7.10;99.90;;;;;;5064211;28;20232;-79
2022/01/27 02:08:38;;;;;;;37.67;17.60;;;7.10;99.90;;;;;;5064879;28;20266;-80
2022/01/27 02:19:25;;;;;;;32.17;17.07;;;7.20;99.90;;;;;;5056763;28;20348;-80
2022/01/27 02:21:55;;;;;;;38.33;17.10;;;7.20;99.90;;;;;;5068233;28;20238;-78
2022/01/27 02:24:24;;;;;;;31.27;16.50;;;7.10;99.90;;;;;;5068037;28;20547;-79
2022/01/27 02:26:51;;;;;;;34.77;15.57;;;7.10;99.90;;;;;;5068701;28;20589;-80
2022/01/27 02:29:19;;;;;;;30.70;15.60;;;7.10;99.90;;;;;;5052663;28;20206;-80
2022/01/27 02:31:47;;;;;;;31.47;16.43;;;7.10;99.90;;;;;;5048912;28;20213;-77
2022/01/27 02:34:14;;;;;;;33.20;15.80;;;7.10;99.90;;;;;;5048547;28;20206;-78
2022/01/27 02:36:41;;;;;;;36.97;16.03;;;7.20;99.90;;;;;;5047850;28;20209;-79
2022/01/27 02:39:11;;;;;;;31.43;16.23;;;7.20;99.90;;;;;;5048556;28;20594;-81
2022/01/27 02:41:43;;;;;;;29.47;14.37;;;7.20;99.90;;;;;;5048179;28;20342;-79
2022/01/27 02:44:10;;;;;;;31.70;15.87;;;7.20;99.90;;;;;;5047510;28;20210;-81
2022/01/27 02:46:45;;;;;;;32.13;15.37;;;7.20;99.90;;;;;;5053882;28;20205;-78
2022/01/27 02:49:12;;;;;;;35.53;14.27;;;7.20;99.90;;;;;;5068854;28;20208;-78
2022/01/27 02:51:39;;;;;;;29.47;14.03;;;7.20;99.90;;;;;;5057286;28;20544;-81
2022/01/27 02:54:05;;;;;;;32.80;14.03;;;7.20;99.90;;;;;;5048117;28;20221;-81
2022/01/27 02:56:34;;;;;;;34.10;14.37;;;7.20;99.90;;;;;;5046676;28;20548;-80
2022/01/27 02:59:01;;;;;;;30.17;14.87;;;7.30;99.90;;;;;;5047286;28;20890;-79
2022/01/27 03:01:28;;;;;;;33.53;13.80;;;7.30;99.90;;;;;;5048463;28;20220;-81
2022/01/27 03:03:54;;;;;;;32.20;14.37;;;7.30;99.90;;;;;;5047553;28;20214;-79
2022/01/27 03:06:21;;;;;;;30.13;14.63;;;7.40;99.90;;;;;;5048344;28;20241;-79
2022/01/27 03:08:48;;;;;;;30.10;15.13;;;7.30;99.90;;;;;;5048164;28;20224;-81
2022/01/27 03:11:18;;;;;;;37.37;16.03;;;7.40;99.90;;;;;;5048253;28;20198;-82
2022/01/27 03:13:46;;;;;;;41.93;15.77;;;7.40;99.90;;;;;;5049443;28;20202;-79
2022/01/27 03:16:13;;;;;;;34.00;15.13;;;7.40;99.90;;;;;;5049010;28;20198;-81
2022/01/27 03:18:40;;;;;;;38.93;14.77;;;7.50;99.90;;;;;;5048238;28;20249;-78
2022/01/27 03:21:06;;;;;;;36.80;15.17;;;7.50;99.90;;;;;;5047560;28;20586;-80
2022/01/27 03:23:35;;;;;;;34.00;14.07;;;7.50;99.90;;;;;;5047301;28;20222;-79
2022/01/27 03:26:02;;;;;;;34.33;15.53;;;7.50;99.90;;;;;;5046671;28;20306;-79
2022/01/27 03:28:30;;;;;;;30.73;12.67;;;7.60;99.90;;;;;;5030915;28;20210;-79
2022/01/27 03:30:58;;;;;;;32.07;12.13;;;7.60;99.90;;;;;;5047941;28;20259;-80
2022/01/27 03:33:25;;;;;;;30.93;12.13;;;7.60;99.90;;;;;;5046796;28;20283;-80
2022/01/27 03:35:53;;;;;;;35.03;12.90;;;7.60;99.90;;;;;;5047804;28;20206;-81
2022/01/27 03:38:20;;;;;;;28.60;11.83;;;7.70;99.90;;;;;;5047423;28;20209;-81
2022/01/27 03:40:47;;;;;;;31.17;12.63;;;7.70;99.90;;;;;;5046559;28;20625;-79
2022/01/27 03:43:14;;;;;;;28.77;12.50;;;7.70;99.90;;;;;;5047718;28;20209;-80
2022/01/27 03:45:41;;;;;;;33.57;13.57;;;7.70;99.90;;;;;;5051102;28;20213;-81
2022/01/27 03:48:09;;;;;;;21.37;11.00;;;7.70;99.90;;;;;;5067472;28;20220;-80
2022/01/27 03:50:36;;;;;;;25.13;10.33;;;7.70;99.90;;;;;;5056340;28;20614;-80
2022/01/27 03:53:03;;;;;;;26.23;11.27;;;7.80;99.90;;;;;;5045669;28;20309;-79
2022/01/27 03:55:30;;;;;;;29.73;11.63;;;7.80;99.90;;;;;;5047081;28;20198;-84
2022/01/27 03:57:57;;;;;;;32.07;13.40;;;7.80;99.90;;;;;;5047156;28;20248;-81
2022/01/27 04:00:24;;;;;;;29.33;11.03;;;7.80;99.90;;;;;;5063636;28;20213;-81
2022/01/27 04:03:01;;;;;;;37.23;11.40;;;7.80;99.90;;;;;;5066185;28;20197;-81
2022/01/27 04:05:35;;;;;;;22.80;10.47;;;7.90;99.90;;;;;;5067436;28;20238;-81
2022/01/27 04:08:01;;;;;;;26.60;10.93;;;7.80;99.90;;;;;;5051960;28;20202;-80
2022/01/27 04:10:28;;;;;;;29.60;10.40;;;7.80;99.90;;;;;;5046858;28;20602;-78
2022/01/27 04:12:55;;;;;;;33.87;11.47;;;7.80;99.90;;;;;;5046386;28;20198;-80
2022/01/27 04:15:22;;;;;;;31.80;12.23;;;7.80;99.90;;;;;;5045132;28;20206;-80
2022/01/27 04:17:49;;;;;;;42.07;14.13;;;7.90;99.90;;;;;;5046223;28;20213;-80
2022/01/27 04:20:16;;;;;;;38.40;12.37;;;7.90;99.90;;;;;;5046213;28;20237;-80
2022/01/27 04:22:44;;;;;;;27.23;10.63;;;7.90;99.90;;;;;;5045280;28;20194;-78
2022/01/27 04:25:13;;;;;;;25.10;11.80;;;7.90;99.90;;;;;;5045826;28;20641;-80
2022/01/27 04:27:44;;;;;;;35.83;12.27;;;7.90;99.90;;;;;;5046240;28;20202;-79
2022/01/27 04:30:14;;;;;;;36.43;13.53;;;7.90;99.90;;;;;;5045509;28;20235;-80
2022/01/27 04:32:45;;;;;;;27.27;12.00;;;7.90;99.90;;;;;;5045187;28;20252;-81
2022/01/27 04:35:16;;;;;;;29.27;11.43;;;7.90;99.90;;;;;;5045799;28;20206;-82
2022/01/27 04:37:56;;;;;;;33.93;13.43;;;7.90;99.90;;;;;;5044851;28;20205;-81
2022/01/27 04:40:30;;;;;;;45.50;14.00;;;7.90;99.90;;;;;;5045989;28;20221;-81
2022/01/27 04:43:03;;;;;;;34.10;13.97;;;7.90;99.90;;;;;;5046026;28;20223;-81
2022/01/27 04:45:36;;;;;;;30.13;12.87;;;7.90;99.90;;;;;;5048908;28;20312;-80
2022/01/27 04:48:10;;;;;;;35.30;13.07;;;7.90;99.90;;;;;;5066636;28;20231;-81
2022/01/27 04:50:38;;;;;;;34.77;13.00;;;7.90;99.90;;;;;;5065551;28;20228;-81
2022/01/27 04:53:10;;;;;;;46.57;14.80;;;7.90;99.90;;;;;;5046193;28;20206;-81
2022/01/27 04:55:37;;;;;;;40.87;14.63;;;7.90;99.90;;;;;;5044989;28;20205;-81
2022/01/27 04:58:12;;;;;;;47.17;14.70;;;8.00;99.90;;;;;;5045791;28;20198;-82
2022/01/27 05:00:39;;;;;;;34.67;13.73;;;8.00;99.90;;;;;;5045487;28;20194;-86
2022/01/27 05:03:16;;;;;;;36.27;14.73;;;8.10;99.90;;;;;;5045318;28;20201;-79
2022/01/27 05:05:42;;;;;;;38.57;13.83;;;8.10;99.90;;;;;;5045733;28;20232;-82
2022/01/27 05:08:17;;;;;;;36.60;13.30;;;8.10;99.90;;;;;;5046049;28;20198;-81
2022/01/27 05:10:53;;;;;;;37.17;12.77;;;8.10;99.90;;;;;;5044790;28;20219;-81
2022/01/27 05:13:22;;;;;;;33.53;14.43;;;8.10;99.90;;;;;;5060134;28;20245;-81
2022/01/27 05:15:49;;;;;;;43.57;14.97;;;8.20;99.90;;;;;;5065520;28;20223;-81
2022/01/27 05:18:16;;;;;;;36.00;14.17;;;8.20;99.90;;;;;;5065914;28;20201;-80
2022/01/27 05:20:43;;;;;;;35.73;13.07;;;8.20;99.90;;;;;;5048569;28;20271;-80
2022/01/27 05:23:12;;;;;;;34.57;12.60;;;8.20;99.90;;;;;;5046016;28;20226;-82
2022/01/27 05:25:40;;;;;;;35.43;12.50;;;8.20;99.90;;;;;;5044491;28;20222;-81
2022/01/27 05:28:08;;;;;;;36.87;15.27;;;8.20;99.90;;;;;;5045453;28;20244;-81
2022/01/27 05:37:05;;;;;;;30.13;11.63;;;8.30;99.90;;;;;;4948320;28;20900;-83
2022/01/27 05:39:33;;;;;;;40.47;14.57;;;8.20;99.90;;;;;;5048411;28;20197;-78
2022/01/27 05:42:00;;;;;;;37.67;13.30;;;8.20;99.90;;;;;;5027484;28;20213;-80
2022/01/27 05:44:27;;;;;;;36.27;12.63;;;8.30;99.90;;;;;;5023042;28;20562;-80
2022/01/27 05:46:53;;;;;;;37.07;12.73;;;8.30;99.90;;;;;;5014195;28;20505;-80
2022/01/27 05:49:20;;;;;;;37.43;13.67;;;8.30;99.90;;;;;;5004196;28;20630;-80
2022/01/27 05:51:47;;;;;;;29.70;10.97;;;8.30;99.90;;;;;;5007235;28;20200;-81
2022/01/27 05:54:14;;;;;;;36.20;14.10;;;8.30;99.90;;;;;;5025821;28;20255;-79
2022/01/27 05:56:42;;;;;;;32.43;11.50;;;8.30;99.90;;;;;;5026232;28;20236;-81
2022/01/27 05:59:09;;;;;;;34.70;11.47;;;8.30;99.90;;;;;;5026438;28;20237;-79
2022/01/27 06:01:36;;;;;;;29.80;12.47;;;8.30;99.90;;;;;;5026747;28;20245;-79
2022/01/27 06:04:02;;;;;;;32.40;11.63;;;8.30;99.90;;;;;;5025732;28;20218;-79
2022/01/27 06:06:29;;;;;;;31.27;11.57;;;8.30;99.90;;;;;;5026562;28;20218;-80
2022/01/27 06:08:56;;;;;;;31.87;11.60;;;8.30;99.90;;;;;;5026133;28;20203;-81
2022/01/27 06:11:23;;;;;;;36.00;13.63;;;8.30;99.90;;;;;;5026522;28;20211;-80
2022/01/27 06:13:51;;;;;;;35.47;11.30;;;8.30;99.90;;;;;;5026317;28;20206;-81
2022/01/27 06:16:17;;;;;;;30.33;12.10;;;8.30;99.90;;;;;;5027053;28;20210;-78
2022/01/27 06:18:44;;;;;;;31.77;10.73;;;8.30;99.90;;;;;;5026203;28;20702;-80
2022/01/27 06:21:13;;;;;;;30.50;11.40;;;8.30;99.90;;;;;;5025750;28;20198;-81
2022/01/27 06:23:39;;;;;;;32.33;11.90;;;8.20;99.90;;;;;;5026582;28;20580;-79
2022/01/27 06:26:06;;;;;;;30.13;10.47;;;8.20;99.90;;;;;;5026465;28;20237;-80
2022/01/27 06:28:33;;;;;;;27.83;11.60;;;8.30;99.90;;;;;;5015114;28;20219;-78
2022/01/27 06:31:01;;;;;;;30.73;11.20;;;8.30;99.90;;;;;;5006352;28;20452;-79
2022/01/27 06:33:28;;;;;;;33.33;10.37;;;8.30;99.90;;;;;;5023280;28;20629;-80
2022/01/27 06:35:55;;;;;;;32.87;10.33;;;8.30;99.90;;;;;;5049621;28;20197;-82
2022/01/27 06:38:21;;;;;;;30.80;10.50;;;8.40;99.90;;;;;;5050150;28;20217;-82
2022/01/27 06:40:48;;;;;;;33.47;12.17;;;8.40;99.90;;;;;;5052087;28;20209;-83
2022/01/27 06:43:16;;;;;;;29.13;11.37;;;8.40;99.90;;;;;;5054106;28;20853;-86
2022/01/27 06:45:43;;;;;;;25.97;10.37;;;8.30;99.90;;;;;;5058281;28;20225;-86
2022/01/27 06:48:11;;;;;;;34.77;11.00;;;8.40;99.90;;;;;;5074221;28;20208;-86
2022/01/27 06:50:39;;;;;;;26.93;10.27;;;8.40;99.90;;;;;;5073953;28;20229;-86
2022/01/27 06:53:05;;;;;;;40.13;12.43;;;8.30;99.90;;;;;;5074347;28;20212;-86
2022/01/27 06:55:32;;;;;;;31.37;10.70;;;8.30;99.90;;;;;;5062896;28;20209;-85
2022/01/27 06:57:59;;;;;;;31.53;10.83;;;8.30;99.90;;;;;;5053148;28;20202;-83
2022/01/27 07:00:26;;;;;;;26.83;10.27;;;8.30;99.90;;;;;;5052578;28;20205;-86
2022/01/27 07:02:53;;;;;;;29.97;11.17;;;8.30;99.90;;;;;;5052814;28;20206;-85
2022/01/27 07:05:21;;;;;;;34.57;12.13;;;8.30;99.90;;;;;;5053301;28;20610;-85
2022/01/27 07:07:48;;;;;;;31.23;11.07;;;8.30;99.90;;;;;;5053034;28;20543;-84
2022/01/27 07:10:15;;;;;;;27.93;10.73;;;8.30;99.90;;;;;;5052162;28;20206;-84
2022/01/27 07:12:42;;;;;;;33.03;11.70;;;8.20;99.90;;;;;;5053093;28;20232;-83
2022/01/27 07:15:10;;;;;;;30.57;11.60;;;8.30;99.90;;;;;;5071994;28;20205;-84
2022/01/27 07:17:37;;;;;;;39.70;11.93;;;8.30;99.90;;;;;;5072461;28;20280;-83
2022/01/27 07:20:04;;;;;;;31.23;10.77;;;8.20;99.90;;;;;;5053784;28;20250;-84
2022/01/27 07:22:36;;;;;;;34.63;10.73;;;8.30;99.90;;;;;;5051410;28;20673;-83
2022/01/27 07:25:05;;;;;;;33.23;10.97;;;8.30;99.90;;;;;;5049944;28;20212;-82
2022/01/27 07:27:32;;;;;;;28.80;10.63;;;8.30;99.90;;;;;;5051838;28;20896;-85
2022/01/27 07:29:59;;;;;;;35.57;11.17;;;8.30;99.90;;;;;;5051072;28;20252;-82
2022/01/27 07:32:26;;;;;;;33.63;11.03;;;8.30;99.90;;;;;;5050377;28;20217;-83
2022/01/27 07:34:55;;;;;;;39.53;11.00;;;8.30;99.90;;;;;;5050438;28;20586;-85
2022/01/27 07:37:22;;;;;;;33.73;11.10;;;8.20;99.90;;;;;;5049014;28;20216;-86
2022/01/27 07:39:50;;;;;;;29.47;10.03;;;8.20;99.90;;;;;;5051941;28;20190;-84
2022/01/27 07:42:17;;;;;;;33.73;11.43;;;8.30;99.90;;;;;;5051516;28;20947;-83
2022/01/27 07:44:44;;;;;;;37.90;11.20;;;8.30;99.90;;;;;;5050047;28;20787;-83
2022/01/27 07:47:12;;;;;;;32.03;9.90;;;8.20;99.90;;;;;;5049763;28;20634;-83
2022/01/27 07:49:39;;;;;;;37.83;11.17;;;8.20;99.90;;;;;;5048962;28;20226;-83
2022/01/27 07:52:06;;;;;;;31.37;10.23;;;8.30;99.90;;;;;;5046887;28;20210;-82
2022/01/27 07:54:33;;;;;;;36.17;11.17;;;8.30;99.90;;;;;;5049790;28;20520;-81
2022/01/27 07:57:01;;;;;;;26.33;10.20;;;8.30;99.90;;;;;;5048941;28;20205;-80
2022/01/27 07:59:28;;;;;;;35.10;9.73;;;8.30;99.90;;;;;;5066736;28;20209;-82
2022/01/27 08:01:55;;;;;;;30.87;10.37;;;8.30;99.90;;;;;;5068421;28;20218;-81
2022/01/27 08:04:21;;;;;;;27.63;9.57;;;8.30;99.90;;;;;;5055242;28;20292;-82
2022/01/27 08:06:48;;;;;;;28.03;10.30;;;8.30;99.90;;;;;;5048110;28;20236;-82
2022/01/27 08:09:15;;;;;;;33.20;9.97;;;8.30;99.90;;;;;;5051153;28;20205;-82
2022/01/27 08:11:42;;;;;;;24.73;8.27;;;8.40;99.90;;;;;;5048171;28;20217;-81
2022/01/27 08:14:10;;;;;;;30.17;9.20;;;8.40;99.90;;;;;;5048214;28;20210;-81
2022/01/27 08:16:37;;;;;;;32.00;8.57;;;8.40;99.90;;;;;;5049521;28;20202;-84
2022/01/27 08:19:03;;;;;;;37.40;9.63;;;8.40;99.90;;;;;;5048303;28;20252;-80
2022/01/27 08:21:30;;;;;;;28.67;10.23;;;8.50;99.90;;;;;;5047408;28;20201;-85
2022/01/27 08:23:59;;;;;;;26.37;9.27;;;8.50;99.90;;;;;;5047314;28;20202;-80
2022/01/27 08:26:32;;;;;;;36.27;10.47;;;8.50;99.90;;;;;;5047352;28;20244;-89
2022/01/27 08:29:09;;;;;;;34.47;11.10;;;8.50;99.90;;;;;;5047066;28;20206;-81
2022/01/27 08:31:53;;;;;;;28.47;9.83;;;8.50;99.90;;;;;;5048933;28;20560;-84
2022/01/27 08:34:29;;;;;;;28.90;9.20;;;8.50;99.90;;;;;;5046954;28;20210;-81
2022/01/27 08:36:56;;;;;;;27.00;9.27;;;8.60;99.90;;;;;;5047490;28;20189;-81
2022/01/27 08:39:23;;;;;;;29.90;8.70;;;8.60;99.90;;;;;;5047587;28;20225;-83
2022/01/27 08:41:50;;;;;;;25.67;8.97;;;8.60;99.90;;;;;;5048564;28;20822;-84
2022/01/27 08:44:17;;;;;;;19.90;8.17;;;8.70;99.90;;;;;;5050340;28;20205;-82
2022/01/27 08:46:45;;;;;;;28.23;8.27;;;8.70;99.90;;;;;;5062554;28;20217;-82
2022/01/27 08:49:12;;;;;;;26.87;8.73;;;8.70;99.90;;;;;;5068758;28;20205;-84
2022/01/27 08:51:58;;;;;;;22.30;7.83;;;8.70;99.90;;;;;;5009254;28;20201;-87
2022/01/27 08:54:26;;;;;;;32.20;8.43;;;8.70;99.90;;;;;;5066128;28;20430;-85
2022/01/27 08:56:53;;;;;;;22.80;7.53;;;8.70;99.90;;;;;;5066008;28;20538;-81
2022/01/27 08:59:20;;;;;;;22.83;8.50;;;8.80;99.90;;;;;;5054111;28;20213;-82
2022/01/27 09:01:49;;;;;;;24.67;8.23;;;8.80;99.90;;;;;;5047688;28;20221;-85
2022/01/27 09:04:15;;;;;;;22.37;8.27;;;8.80;99.90;;;;;;5047750;28;20244;-82
2022/01/27 09:06:42;;;;;;;25.17;8.00;;;8.80;99.90;;;;;;5047473;28;20604;-80
2022/01/27 09:09:09;;;;;;;28.17;7.57;;;8.80;99.90;;;;;;5052069;28;20772;-83
2022/01/27 09:11:36;;;;;;;28.27;7.60;;;8.80;99.90;;;;;;5051149;28;20216;-82
2022/01/27 09:14:05;;;;;;;20.10;6.77;;;8.80;99.90;;;;;;5061866;28;20208;-79
2022/01/27 09:16:32;;;;;;;22.43;7.07;;;8.80;99.90;;;;;;5060029;28;20198;-82
2022/01/27 09:19:01;;;;;;;23.30;7.50;;;8.80;99.90;;;;;;5045592;28;20827;-80
2022/01/27 09:21:39;;;;;;;29.07;7.97;;;8.80;99.90;;;;;;5045304;28;20895;-83
2022/01/27 09:24:07;;;;;;;23.40;7.13;;;8.80;99.90;;;;;;5048182;28;20217;-80
2022/01/27 09:26:43;;;;;;;26.67;8.10;;;8.90;99.90;;;;;;5046327;28;20222;-81
2022/01/27 09:29:10;;;;;;;22.13;7.40;;;8.90;99.90;;;;;;5047351;28;20193;-80
2022/01/27 09:31:37;;;;;;;26.13;7.57;;;8.90;99.90;;;;;;5047126;28;20284;-82
2022/01/27 09:34:06;;;;;;;33.63;7.87;;;8.90;99.90;;;;;;5046329;28;20873;-81
2022/01/27 09:36:32;;;;;;;26.67;7.40;;;8.90;99.90;;;;;;5046750;28;20599;-83
2022/01/27 09:38:59;;;;;;;30.50;6.67;;;8.90;99.90;;;;;;5046747;28;20210;-83
2022/01/27 09:41:27;;;;;;;36.80;7.97;;;8.90;99.90;;;;;;5065038;28;20212;-80
2022/01/27 09:43:54;;;;;;;22.47;6.60;;;9.00;99.90;;;;;;5066139;28;20320;-83
2022/01/27 09:46:23;;;;;;;27.67;7.73;;;9.00;99.90;;;;;;5067503;28;20209;-84
2022/01/27 09:48:51;;;;;;;22.63;6.40;;;9.10;99.90;;;;;;5067131;28;20795;-87
2022/01/27 09:51:27;;;;;;;22.43;6.07;;;9.10;99.90;;;;;;5057826;28;20504;-81
2022/01/27 09:53:56;;;;;;;24.83;7.00;;;9.10;99.90;;;;;;5047617;28;20498;-78
2022/01/27 09:56:23;;;;;;;32.60;6.60;;;9.20;99.90;;;;;;5048916;28;20240;-83
2022/01/27 09:58:50;;;;;;;27.83;6.77;;;9.20;99.90;;;;;;5051886;28;20205;-81
2022/01/27 10:01:17;;;;;;;25.70;8.53;;;9.20;99.90;;;;;;5067542;28;20205;-83
2022/01/27 10:03:53;;;;;;;18.23;6.07;;;9.30;99.90;;;;;;5067488;28;20567;-84
2022/01/27 10:06:26;;;;;;;19.17;6.27;;;9.30;99.90;;;;;;5050361;28;20247;-85
2022/01/27 10:09:12;;;;;;;25.00;6.20;;;9.40;99.90;;;;;;5045914;28;20339;-81
2022/01/27 10:11:39;;;;;;;21.70;6.00;;;9.40;99.90;;;;;;5046828;28;20202;-84
2022/01/27 10:14:26;;;;;;;28.83;7.63;;;9.40;99.90;;;;;;5047289;28;20209;-84
2022/01/27 10:16:56;;;;;;;22.70;6.53;;;9.30;99.90;;;;;;5047017;28;20286;-82
2022/01/27 10:19:25;;;;;;;23.70;5.83;;;9.30;99.90;;;;;;5046862;28;20238;-85
2022/01/27 10:22:00;;;;;;;23.97;6.80;;;9.40;99.90;;;;;;5045780;28;20624;-81
2022/01/27 10:24:29;;;;;;;17.53;6.03;;;9.40;99.90;;;;;;5050308;28;20491;-84
2022/01/27 10:27:24;;;;;;;23.60;7.00;;;9.40;99.90;;;;;;5065641;28;20257;-85
2022/01/27 10:32:45;;;;;;;19.77;6.40;;;9.40;99.90;;;;;;5021280;28;20375;-83
2022/01/27 10:35:14;;;;;;;29.20;6.10;;;9.40;99.90;;;;;;5047131;28;20209;-85
2022/01/27 10:38:00;;;;;;;24.87;6.27;;;9.40;99.90;;;;;;5050467;28;20209;-85
2022/01/27 10:40:30;;;;;;;28.27;7.00;;;9.50;99.90;;;;;;5058861;28;20220;-84
2022/01/27 10:43:04;;;;;;;26.23;7.03;;;9.50;99.90;;;;;;5069585;28;20220;-83
2022/01/27 10:45:30;;;;;;;23.90;5.20;;;9.50;99.90;;;;;;5068342;28;20209;-81
2022/01/27 10:48:21;;;;;;;24.07;6.27;;;9.50;99.90;;;;;;5061522;28;20218;-82
2022/01/27 10:50:56;;;;;;;19.23;5.37;;;9.50;99.90;;;;;;5049038;28;20221;-82
2022/01/27 10:53:42;;;;;;;16.87;5.40;;;9.60;99.90;;;;;;5049993;28;20208;-79
2022/01/27 10:56:09;;;;;;;22.50;5.57;;;9.60;99.90;;;;;;5049586;28;20657;-81
2022/01/27 10:58:37;;;;;;;21.90;5.40;;;9.60;99.90;;;;;;5050348;28;20639;-81
2022/01/27 11:01:04;;;;;;;23.07;5.23;;;9.60;99.90;;;;;;5050082;28;20205;-81
2022/01/27 11:03:31;;;;;;;20.53;5.43;;;9.60;99.90;;;;;;5059022;28;20209;-82
2022/01/27 11:06:08;;;;;;;22.63;5.67;;;9.60;99.90;;;;;;5070208;28;20212;-83
2022/01/27 11:08:40;;;;;;;17.27;5.40;;;9.60;99.90;;;;;;5070315;28;20268;-85
2022/01/27 11:11:07;;;;;;;22.23;5.00;;;9.60;99.90;;;;;;5056784;28;20214;-84
2022/01/27 11:13:35;;;;;;;22.00;5.47;;;9.60;99.90;;;;;;5049754;28;20209;-81
2022/01/27 11:16:03;;;;;;;23.00;6.50;;;9.60;99.90;;;;;;5048854;28;20561;-81
2022/01/27 11:18:31;;;;;;;24.43;6.87;;;9.60;99.90;;;;;;5057819;28;20198;-81
2022/01/27 11:21:02;;;;;;;23.37;6.53;;;9.50;99.90;;;;;;5069384;28;20193;-84
2022/01/27 11:26:23;;;;;;;21.20;6.00;;;9.60;99.90;;;;;;5045447;28;20206;-80
2022/01/27 11:28:50;;;;;;;19.53;6.53;;;9.60;99.90;;;;;;5048451;28;20231;-83
2022/01/27 11:31:30;;;;;;;19.83;7.43;;;9.60;99.90;;;;;;5048248;28;20209;-82
2022/01/27 11:34:01;;;;;;;20.43;7.07;;;9.70;99.90;;;;;;5048920;28;20216;-81
2022/01/27 11:36:29;;;;;;;20.60;6.70;;;9.70;99.90;;;;;;5047224;28;20297;-81
2022/01/27 11:38:57;;;;;;;21.87;6.63;;;9.80;99.90;;;;;;5046815;28;20198;-80
2022/01/27 11:41:53;;;;;;;19.67;6.00;;;9.90;99.90;;;;;;5047240;28;20209;-80
2022/01/27 11:44:32;;;;;;;22.20;6.03;;;9.90;99.90;;;;;;5011869;28;20206;-79
2022/01/27 11:47:22;;;;;;;21.07;7.40;;;9.90;99.90;;;;;;5047606;28;20521;-81
2022/01/27 11:50:04;;;;;;;30.60;7.63;;;10.10;99.90;;;;;;5046687;28;20720;-79
2022/01/27 11:52:33;;;;;;;17.10;6.23;;;10.10;99.90;;;;;;5047310;28;20194;-80
2022/01/27 11:55:33;;;;;;;25.63;6.90;;;10.10;99.90;;;;;;5047388;28;20539;-79
2022/01/27 11:58:13;;;;;;;20.33;6.50;;;10.10;99.90;;;;;;5047166;28;20201;-80
2022/01/27 12:00:40;;;;;;;21.00;5.97;;;10.10;99.90;;;;;;5046796;28;20201;-83
2022/01/27 12:03:24;;;;;;;19.83;5.60;;;10.10;99.90;;;;;;5046649;28;20213;-80
2022/01/27 12:06:13;;;;;;;25.90;5.63;;;10.10;99.90;;;;;;5046023;28;20214;-80
2022/01/27 12:08:40;;;;;;;20.83;5.63;;;10.10;99.90;;;;;;5046476;28;20323;-81
2022/01/27 12:11:10;;;;;;;17.70;4.73;;;10.10;99.90;;;;;;5052755;28;20922;-81
2022/01/27 12:14:01;;;;;;;15.40;4.57;;;10.10;99.90;;;;;;5066509;28;20589;-80
2022/01/27 12:19:18;;;;;;;16.40;4.33;;;10.20;99.90;;;;;;5035562;28;20240;-80
2022/01/27 12:21:56;;;;;;;18.00;4.43;;;10.20;99.90;;;;;;5046416;28;20216;-82
2022/01/27 12:24:25;;;;;;;14.70;4.90;;;10.30;99.90;;;;;;5047109;28;20202;-80
2022/01/27 12:26:54;;;;;;;21.47;6.30;;;10.30;99.90;;;;;;5045305;28;20216;-80
2022/01/27 12:29:33;;;;;;;27.57;5.37;;;10.30;99.90;;;;;;5046463;28;20229;-80
2022/01/27 12:32:02;;;;;;;19.50;5.10;;;10.20;99.90;;;;;;5046153;28;20204;-80
2022/01/27 12:34:30;;;;;;;17.93;5.47;;;10.20;99.90;;;;;;5064051;28;20212;-81
2022/01/27 12:36:59;;;;;;;23.57;5.90;;;10.20;99.90;;;;;;5065879;28;20506;-80
2022/01/27 12:39:27;;;;;;;25.37;5.50;;;10.20;99.90;;;;;;5058117;28;20214;-80
2022/01/27 12:41:55;;;;;;;15.07;4.40;;;10.20;99.90;;;;;;5045806;28;20213;-79
2022/01/27 12:44:23;;;;;;;21.00;5.60;;;10.30;99.90;;;;;;5046780;28;20213;-81
2022/01/27 12:47:16;;;;;;;23.80;5.27;;;10.20;99.90;;;;;;5060440;28;20213;-79
2022/01/27 12:49:46;;;;;;;20.80;4.53;;;10.20;99.90;;;;;;5061939;28;20267;-79
2022/01/27 12:52:16;;;;;;;17.97;4.13;;;10.30;99.90;;;;;;5047588;28;20295;-79
2022/01/27 12:54:45;;;;;;;17.03;4.63;;;10.30;99.90;;;;;;5046684;28;20205;-80
2022/01/27 12:57:13;;;;;;;20.03;6.10;;;10.30;99.90;;;;;;5046589;28;20296;-78
2022/01/27 12:59:42;;;;;;;21.13;6.40;;;10.40;99.90;;;;;;5044994;28;20233;-79
2022/01/27 13:02:12;;;;;;;24.60;5.77;;;10.40;99.90;;;;;;5044842;28;20209;-79
2022/01/27 13:04:42;;;;;;;20.03;7.20;;;10.40;99.90;;;;;;5045457;28;20522;-80
2022/01/27 13:07:08;;;;;;;20.57;5.30;;;10.40;99.90;;;;;;5045070;28;20313;-80
2022/01/27 13:09:35;;;;;;;15.00;4.93;;;10.40;99.90;;;;;;5044660;28;20222;-80
2022/01/27 13:12:17;;;;;;;15.03;4.60;;;10.50;99.90;;;;;;5044761;28;20224;-79
2022/01/27 13:14:56;;;;;;;22.07;5.17;;;10.50;99.90;;;;;;5044823;28;20201;-80
2022/01/27 13:17:31;;;;;;;24.80;5.20;;;10.50;99.90;;;;;;5044933;28;20221;-80
2022/01/27 13:20:11;;;;;;;16.40;4.90;;;10.50;99.90;;;;;;5044699;28;20236;-80
2022/01/27 13:22:45;;;;;;;13.63;3.70;;;10.50;99.90;;;;;;5045052;28;20220;-80
2022/01/27 13:25:12;;;;;;;15.70;4.57;;;10.40;99.90;;;;;;5045691;28;20205;-79
2022/01/27 13:27:39;;;;;;;19.83;4.33;;;10.30;99.90;;;;;;5045038;28;20206;-80
2022/01/27 13:30:07;;;;;;;22.00;3.93;;;10.30;99.90;;;;;;5045172;28;20225;-81
2022/01/27 13:32:35;;;;;;;20.00;4.30;;;10.20;99.90;;;;;;5045180;28;20205;-80